sensor_id;sensor_type;location;lat;lon;timestamp;pressure;altitude;pressure_sealevel;temperature;humidity
9853;BME280;4965;43.238;27.864;2022-10-29T00:00:41;101421.75;;;10.06;100.00
9853;BME280;4965;43.238;27.864;2022-10-29T00:03:08;101426.09;;;10.07;100.00
9853;BME280;4965;43.238;27.864;2022-10-29T00:05:35;101399.69;;;9.93;100.00
9853;BME280;4965;43.238;27.864;2022-10-29T00:08:02;101443.47;;;10.25;100.00
9853;BME280;4965;43.238;27.864;2022-10-29T00:10:29;101445.06;;;10.28;100.00
9853;BME280;4965;43.238;27.864;2022-10-29T00:12:59;101442.97;;;10.33;100.00
9853;BME280;4965;43.238;27.864;2022-10-29T00:15:28;101421.47;;;10.11;100.00
9853;BME280;4965;43.238;27.864;2022-10-29T00:17:56;101438.47;;;10.21;100.00
9853;BME280;4965;43.238;27.864;2022-10-29T00:20:23;101428.00;;;10.19;100.00
9853;BME280;4965;43.238;27.864;2022-10-29T00:22:52;101433.19;;;10.21;100.00
9853;BME280;4965;43.238;27.864;2022-10-29T00:25:19;101367.63;;;9.85;100.00
9853;BME280;4965;43.238;27.864;2022-10-29T00:27:46;101408.25;;;10.25;100.00
9853;BME280;4965;43.238;27.864;2022-10-29T00:30:13;101407.91;;;10.17;100.00
9853;BME280;4965;43.238;27.864;2022-10-29T00:32:42;101419.69;;;10.25;100.00
9853;BME280;4965;43.238;27.864;2022-10-29T00:35:09;101417.03;;;10.25;100.00
9853;BME280;4965;43.238;27.864;2022-10-29T00:37:36;101404.69;;;10.26;100.00
9853;BME280;4965;43.238;27.864;2022-10-29T00:40:07;101399.13;;;10.02;100.00
9853;BME280;4965;43.238;27.864;2022-10-29T00:42:34;101430.47;;;10.22;100.00
9853;BME280;4965;43.238;27.864;2022-10-29T00:45:01;101421.44;;;10.39;100.00
9853;BME280;4965;43.238;27.864;2022-10-29T00:47:29;101421.00;;;10.32;100.00
9853;BME280;4965;43.238;27.864;2022-10-29T00:50:01;101415.63;;;10.34;100.00
9853;BME280;4965;43.238;27.864;2022-10-29T00:52:31;101395.63;;;10.16;100.00
9853;BME280;4965;43.238;27.864;2022-10-29T00:54:59;101414.84;;;10.32;100.00
9853;BME280;4965;43.238;27.864;2022-10-29T00:57:32;101416.81;;;10.42;100.00
9853;BME280;4965;43.238;27.864;2022-10-29T01:00:01;101417.31;;;10.35;100.00
9853;BME280;4965;43.238;27.864;2022-10-29T01:02:28;101387.22;;;10.09;100.00
9853;BME280;4965;43.238;27.864;2022-10-29T01:04:57;101409.13;;;10.11;100.00
9853;BME280;4965;43.238;27.864;2022-10-29T01:07:26;101373.09;;;9.82;100.00
9853;BME280;4965;43.238;27.864;2022-10-29T01:09:53;101340.50;;;9.69;100.00
9853;BME280;4965;43.238;27.864;2022-10-29T01:12:32;101360.31;;;9.76;100.00
9853;BME280;4965;43.238;27.864;2022-10-29T01:15:09;101394.84;;;10.14;100.00
9853;BME280;4965;43.238;27.864;2022-10-29T01:17:48;101392.31;;;10.26;100.00
9853;BME280;4965;43.238;27.864;2022-10-29T01:20:34;101368.56;;;9.98;100.00
9853;BME280;4965;43.238;27.864;2022-10-29T01:23:16;101352.91;;;9.95;100.00
9853;BME280;4965;43.238;27.864;2022-10-29T01:26:03;101378.38;;;9.96;100.00
9853;BME280;4965;43.238;27.864;2022-10-29T01:28:47;101342.47;;;9.79;100.00
9853;BME280;4965;43.238;27.864;2022-10-29T01:31:30;101373.19;;;9.94;100.00
9853;BME280;4965;43.238;27.864;2022-10-29T01:34:04;101379.09;;;10.12;100.00
9853;BME280;4965;43.238;27.864;2022-10-29T01:36:37;101318.63;;;9.81;100.00
9853;BME280;4965;43.238;27.864;2022-10-29T01:39:08;101354.31;;;10.00;100.00
9853;BME280;4965;43.238;27.864;2022-10-29T01:41:48;101357.59;;;10.04;100.00
9853;BME280;4965;43.238;27.864;2022-10-29T01:44:26;101376.44;;;10.12;100.00
9853;BME280;4965;43.238;27.864;2022-10-29T01:46:59;101380.75;;;10.15;100.00
9853;BME280;4965;43.238;27.864;2022-10-29T01:49:31;101377.13;;;10.16;100.00
9853;BME280;4965;43.238;27.864;2022-10-29T01:52:02;101368.00;;;10.07;100.00
9853;BME280;4965;43.238;27.864;2022-10-29T01:54:30;101370.91;;;10.02;100.00
9853;BME280;4965;43.238;27.864;2022-10-29T01:56:57;101364.78;;;10.02;100.00
9853;BME280;4965;43.238;27.864;2022-10-29T01:59:27;101360.84;;;9.95;100.00
9853;BME280;4965;43.238;27.864;2022-10-29T02:02:04;101358.00;;;9.98;100.00
9853;BME280;4965;43.238;27.864;2022-10-29T02:04:47;101357.59;;;10.04;100.00
9853;BME280;4965;43.238;27.864;2022-10-29T02:07:27;101361.09;;;10.04;100.00
9853;BME280;4965;43.238;27.864;2022-10-29T02:10:06;101359.50;;;10.02;100.00
9853;BME280;4965;43.238;27.864;2022-10-29T02:12:45;101360.34;;;10.02;100.00
9853;BME280;4965;43.238;27.864;2022-10-29T02:15:16;101362.50;;;10.10;100.00
9853;BME280;4965;43.238;27.864;2022-10-29T02:17:46;101356.28;;;10.11;100.00
9853;BME280;4965;43.238;27.864;2022-10-29T02:20:14;101357.78;;;10.01;100.00
9853;BME280;4965;43.238;27.864;2022-10-29T02:22:42;101357.44;;;10.07;100.00
9853;BME280;4965;43.238;27.864;2022-10-29T02:25:09;101358.38;;;10.06;100.00
9853;BME280;4965;43.238;27.864;2022-10-29T02:27:36;101351.38;;;10.05;100.00
9853;BME280;4965;43.238;27.864;2022-10-29T02:30:04;101358.38;;;10.06;100.00
9853;BME280;4965;43.238;27.864;2022-10-29T02:32:31;101356.28;;;10.11;100.00
9853;BME280;4965;43.238;27.864;2022-10-29T02:35:00;101351.84;;;10.12;100.00
9853;BME280;4965;43.238;27.864;2022-10-29T02:37:27;101337.59;;;10.14;100.00
9853;BME280;4965;43.238;27.864;2022-10-29T02:39:54;101341.84;;;10.17;100.00
9853;BME280;4965;43.238;27.864;2022-10-29T02:42:21;101343.25;;;10.08;100.00
9853;BME280;4965;43.238;27.864;2022-10-29T02:44:48;101341.97;;;10.15;100.00
9853;BME280;4965;43.238;27.864;2022-10-29T02:47:14;101341.75;;;10.04;100.00
9853;BME280;4965;43.238;27.864;2022-10-29T02:49:41;101335.09;;;9.98;100.00
9853;BME280;4965;43.238;27.864;2022-10-29T02:52:10;101336.66;;;10.01;100.00
9853;BME280;4965;43.238;27.864;2022-10-29T02:54:37;101333.00;;;10.03;100.00
9853;BME280;4965;43.238;27.864;2022-10-29T02:57:04;101334.59;;;10.06;100.00
9853;BME280;4965;43.238;27.864;2022-10-29T02:59:31;101334.31;;;9.96;100.00
9853;BME280;4965;43.238;27.864;2022-10-29T03:01:58;101330.16;;;9.92;100.00
9853;BME280;4965;43.238;27.864;2022-10-29T03:04:24;101334.63;;;9.92;100.00
9853;BME280;4965;43.238;27.864;2022-10-29T03:06:51;101331.78;;;9.95;100.00
9853;BME280;4965;43.238;27.864;2022-10-29T03:09:20;101325.22;;;9.88;100.00
9853;BME280;4965;43.238;27.864;2022-10-29T03:11:47;101320.41;;;9.80;100.00
9853;BME280;4965;43.238;27.864;2022-10-29T03:14:14;101330.13;;;9.80;100.00
9853;BME280;4965;43.238;27.864;2022-10-29T03:16:40;101339.00;;;9.65;100.00
9853;BME280;4965;43.238;27.864;2022-10-29T03:19:07;101326.75;;;9.64;100.00
9853;BME280;4965;43.238;27.864;2022-10-29T03:21:34;101324.69;;;9.69;100.00
9853;BME280;4965;43.238;27.864;2022-10-29T03:24:05;101343.63;;;9.61;100.00
9853;BME280;4965;43.238;27.864;2022-10-29T03:26:34;101318.72;;;9.51;100.00
9853;BME280;4965;43.238;27.864;2022-10-29T03:29:01;101313.25;;;9.54;100.00
9853;BME280;4965;43.238;27.864;2022-10-29T03:31:27;101318.25;;;9.73;100.00
9853;BME280;4965;43.238;27.864;2022-10-29T03:33:54;101316.75;;;9.69;100.00
9853;BME280;4965;43.238;27.864;2022-10-29T03:36:21;101316.19;;;9.64;100.00
9853;BME280;4965;43.238;27.864;2022-10-29T03:38:48;101304.41;;;9.69;100.00
9853;BME280;4965;43.238;27.864;2022-10-29T03:41:15;101311.56;;;9.67;100.00
9853;BME280;4965;43.238;27.864;2022-10-29T03:43:43;101312.13;;;9.58;100.00
9853;BME280;4965;43.238;27.864;2022-10-29T03:46:10;101316.91;;;9.66;100.00
9853;BME280;4965;43.238;27.864;2022-10-29T03:48:36;101302.06;;;9.65;100.00
9853;BME280;4965;43.238;27.864;2022-10-29T03:51:04;101309.19;;;9.63;100.00
9853;BME280;4965;43.238;27.864;2022-10-29T03:53:33;101311.84;;;9.63;100.00
9853;BME280;4965;43.238;27.864;2022-10-29T03:56:00;101313.81;;;9.59;100.00
9853;BME280;4965;43.238;27.864;2022-10-29T03:58:27;101317.88;;;9.50;100.00
9853;BME280;4965;43.238;27.864;2022-10-29T04:00:57;101310.34;;;9.44;100.00
9853;BME280;4965;43.238;27.864;2022-10-29T04:03:25;101324.78;;;9.53;100.00
9853;BME280;4965;43.238;27.864;2022-10-29T04:05:53;101322.69;;;9.44;100.00
9853;BME280;4965;43.238;27.864;2022-10-29T04:08:20;101323.91;;;9.38;100.00
9853;BME280;4965;43.238;27.864;2022-10-29T04:10:49;101317.50;;;9.28;100.00
9853;BME280;4965;43.238;27.864;2022-10-29T04:13:16;101297.72;;;9.21;100.00
9853;BME280;4965;43.238;27.864;2022-10-29T04:15:44;101315.53;;;9.18;100.00
9853;BME280;4965;43.238;27.864;2022-10-29T04:18:12;101317.31;;;9.17;100.00
9853;BME280;4965;43.238;27.864;2022-10-29T04:20:39;101315.81;;;9.13;100.00
9853;BME280;4965;43.238;27.864;2022-10-29T04:23:06;101321.16;;;9.12;100.00
9853;BME280;4965;43.238;27.864;2022-10-29T04:25:33;101316.66;;;9.14;100.00
9853;BME280;4965;43.238;27.864;2022-10-29T04:28:00;101322.69;;;9.16;100.00
9853;BME280;4965;43.238;27.864;2022-10-29T04:30:27;101317.91;;;9.22;100.00
9853;BME280;4965;43.238;27.864;2022-10-29T04:32:57;101325.31;;;9.16;100.00
9853;BME280;4965;43.238;27.864;2022-10-29T04:35:27;101317.78;;;9.24;100.00
9853;BME280;4965;43.238;27.864;2022-10-29T04:37:54;101320.44;;;9.24;100.00
9853;BME280;4965;43.238;27.864;2022-10-29T04:40:21;101308.94;;;9.11;100.00
9853;BME280;4965;43.238;27.864;2022-10-29T04:42:49;101320.16;;;9.14;100.00
9853;BME280;4965;43.238;27.864;2022-10-29T04:45:16;101323.25;;;9.06;100.00
9853;BME280;4965;43.238;27.864;2022-10-29T04:47:43;101335.59;;;9.06;100.00
9853;BME280;4965;43.238;27.864;2022-10-29T04:50:10;101325.03;;;9.06;100.00
9853;BME280;4965;43.238;27.864;2022-10-29T04:52:38;101324.84;;;8.95;100.00
9853;BME280;4965;43.238;27.864;2022-10-29T04:55:06;101331.41;;;8.88;100.00
9853;BME280;4965;43.238;27.864;2022-10-29T04:57:33;101310.06;;;8.63;100.00
9853;BME280;4965;43.238;27.864;2022-10-29T04:59:59;101345.31;;;8.76;100.00
9853;BME280;4965;43.238;27.864;2022-10-29T05:02:26;101345.59;;;8.71;100.00
9853;BME280;4965;43.238;27.864;2022-10-29T05:04:53;101352.03;;;8.66;100.00
9853;BME280;4965;43.238;27.864;2022-10-29T05:07:20;101351.72;;;8.72;100.00
9853;BME280;4965;43.238;27.864;2022-10-29T05:09:48;101366.16;;;8.80;100.00
9853;BME280;4965;43.238;27.864;2022-10-29T05:12:15;101375.94;;;8.92;100.00
9853;BME280;4965;43.238;27.864;2022-10-29T05:14:41;101376.66;;;9.10;100.00
9853;BME280;4965;43.238;27.864;2022-10-29T05:17:08;101384.75;;;9.07;100.00
9853;BME280;4965;43.238;27.864;2022-10-29T05:19:35;101390.25;;;9.32;100.00
9853;BME280;4965;43.238;27.864;2022-10-29T05:22:02;101379.13;;;9.13;100.00
9853;BME280;4965;43.238;27.864;2022-10-29T05:24:29;101390.84;;;9.37;100.00
9853;BME280;4965;43.238;27.864;2022-10-29T05:26:57;101409.19;;;9.39;100.00
9853;BME280;4965;43.238;27.864;2022-10-29T05:29:24;101404.72;;;9.69;100.00
9853;BME280;4965;43.238;27.864;2022-10-29T05:31:52;101410.00;;;9.83;100.00
9853;BME280;4965;43.238;27.864;2022-10-29T05:34:19;101423.75;;;10.02;100.00
9853;BME280;4965;43.238;27.864;2022-10-29T05:36:46;101429.41;;;10.11;100.00
9853;BME280;4965;43.238;27.864;2022-10-29T05:39:12;101419.97;;;10.35;100.00
9853;BME280;4965;43.238;27.864;2022-10-29T05:44:14;101429.72;;;10.74;100.00
9853;BME280;4965;43.238;27.864;2022-10-29T05:46:41;101397.97;;;10.61;100.00
9853;BME280;4965;43.238;27.864;2022-10-29T05:49:08;101390.91;;;10.74;100.00
9853;BME280;4965;43.238;27.864;2022-10-29T05:51:37;101443.31;;;11.21;100.00
9853;BME280;4965;43.238;27.864;2022-10-29T05:54:04;101355.81;;;10.72;100.00
9853;BME280;4965;43.238;27.864;2022-10-29T05:56:31;101437.19;;;11.33;100.00
9853;BME280;4965;43.238;27.864;2022-10-29T05:58:58;101448.53;;;11.61;100.00
9853;BME280;4965;43.238;27.864;2022-10-29T06:01:27;101447.59;;;11.62;100.00
9853;BME280;4965;43.238;27.864;2022-10-29T06:03:53;101464.34;;;11.62;100.00
9853;BME280;4965;43.238;27.864;2022-10-29T06:06:20;101418.25;;;11.52;100.00
9853;BME280;4965;43.238;27.864;2022-10-29T06:08:47;101437.84;;;11.62;100.00
9853;BME280;4965;43.238;27.864;2022-10-29T06:11:14;101401.72;;;11.23;100.00
9853;BME280;4965;43.238;27.864;2022-10-29T06:13:42;101352.44;;;10.83;100.00
9853;BME280;4965;43.238;27.864;2022-10-29T06:16:10;101417.66;;;11.09;100.00
9853;BME280;4965;43.238;27.864;2022-10-29T06:18:39;101414.53;;;10.90;100.00
9853;BME280;4965;43.238;27.864;2022-10-29T06:21:06;101451.94;;;10.98;100.00
9853;BME280;4965;43.238;27.864;2022-10-29T06:23:33;101440.31;;;11.13;100.00
9853;BME280;4965;43.238;27.864;2022-10-29T06:26:03;101435.44;;;11.07;100.00
9853;BME280;4965;43.238;27.864;2022-10-29T06:28:30;101468.19;;;11.19;100.00
9853;BME280;4965;43.238;27.864;2022-10-29T06:30:56;101441.03;;;11.03;100.00
9853;BME280;4965;43.238;27.864;2022-10-29T06:33:23;101422.31;;;11.06;100.00
9853;BME280;4965;43.238;27.864;2022-10-29T06:35:57;101421.06;;;11.24;100.00
9853;BME280;4965;43.238;27.864;2022-10-29T06:38:24;101460.19;;;11.45;100.00
9853;BME280;4965;43.238;27.864;2022-10-29T06:40:51;101445.03;;;11.35;100.00
9853;BME280;4965;43.238;27.864;2022-10-29T06:43:19;101468.34;;;11.42;100.00
9853;BME280;4965;43.238;27.864;2022-10-29T06:45:47;101428.78;;;11.14;100.00
9853;BME280;4965;43.238;27.864;2022-10-29T06:48:14;101468.94;;;11.33;100.00
9853;BME280;4965;43.238;27.864;2022-10-29T06:50:41;101442.28;;;11.36;100.00
9853;BME280;4965;43.238;27.864;2022-10-29T06:53:12;101470.47;;;11.63;100.00
9853;BME280;4965;43.238;27.864;2022-10-29T06:55:40;101431.03;;;11.33;100.00
9853;BME280;4965;43.238;27.864;2022-10-29T06:58:12;101480.38;;;11.73;100.00
9853;BME280;4965;43.238;27.864;2022-10-29T07:00:39;101476.97;;;11.71;100.00
9853;BME280;4965;43.238;27.864;2022-10-29T07:03:09;101482.34;;;11.70;100.00
9853;BME280;4965;43.238;27.864;2022-10-29T07:05:38;101486.81;;;11.94;100.00
9853;BME280;4965;43.238;27.864;2022-10-29T07:08:20;101466.88;;;12.02;100.00
9853;BME280;4965;43.238;27.864;2022-10-29T07:10:49;101483.19;;;12.21;100.00
9853;BME280;4965;43.238;27.864;2022-10-29T07:13:16;101424.28;;;12.05;100.00
9853;BME280;4965;43.238;27.864;2022-10-29T07:15:43;101467.03;;;12.36;100.00
9853;BME280;4965;43.238;27.864;2022-10-29T07:18:13;101433.97;;;12.29;100.00
9853;BME280;4965;43.238;27.864;2022-10-29T07:20:42;101409.25;;;12.29;100.00
9853;BME280;4965;43.238;27.864;2022-10-29T07:23:10;101480.47;;;12.82;100.00
9853;BME280;4965;43.238;27.864;2022-10-29T07:25:39;101478.78;;;12.81;100.00
9853;BME280;4965;43.238;27.864;2022-10-29T07:28:10;101473.88;;;13.12;100.00
9853;BME280;4965;43.238;27.864;2022-10-29T07:30:37;101473.34;;;13.07;100.00
9853;BME280;4965;43.238;27.864;2022-10-29T07:33:05;101486.91;;;13.39;100.00
9853;BME280;4965;43.238;27.864;2022-10-29T07:35:32;101467.66;;;13.24;100.00
9853;BME280;4965;43.238;27.864;2022-10-29T07:38:01;101475.56;;;13.48;100.00
9853;BME280;4965;43.238;27.864;2022-10-29T07:40:28;101447.31;;;13.47;100.00
9853;BME280;4965;43.238;27.864;2022-10-29T07:42:58;101473.22;;;13.78;100.00
9853;BME280;4965;43.238;27.864;2022-10-29T07:45:25;101474.91;;;13.79;100.00
9853;BME280;4965;43.238;27.864;2022-10-29T07:47:57;101475.41;;;13.84;100.00
9853;BME280;4965;43.238;27.864;2022-10-29T07:50:25;101429.00;;;13.66;100.00
9853;BME280;4965;43.238;27.864;2022-10-29T07:52:53;101468.53;;;14.15;100.00
9853;BME280;4965;43.238;27.864;2022-10-29T07:55:21;101471.34;;;14.36;100.00
9853;BME280;4965;43.238;27.864;2022-10-29T07:57:54;101470.47;;;14.46;100.00
9853;BME280;4965;43.238;27.864;2022-10-29T08:00:25;101464.28;;;14.46;100.00
9853;BME280;4965;43.238;27.864;2022-10-29T08:02:53;101467.63;;;14.70;100.00
9853;BME280;4965;43.238;27.864;2022-10-29T08:05:20;101470.91;;;14.73;100.00
9853;BME280;4965;43.238;27.864;2022-10-29T08:07:47;101457.00;;;14.70;100.00
9853;BME280;4965;43.238;27.864;2022-10-29T08:10:15;101464.34;;;14.77;100.00
9853;BME280;4965;43.238;27.864;2022-10-29T08:12:48;101465.69;;;14.72;100.00
9853;BME280;4965;43.238;27.864;2022-10-29T08:15:16;101470.38;;;14.79;100.00
9853;BME280;4965;43.238;27.864;2022-10-29T08:17:46;101463.19;;;14.91;100.00
9853;BME280;4965;43.238;27.864;2022-10-29T08:20:15;101456.53;;;14.97;100.00
9853;BME280;4965;43.238;27.864;2022-10-29T08:22:43;101459.09;;;15.19;100.00
9853;BME280;4965;43.238;27.864;2022-10-29T08:25:11;101454.66;;;15.40;100.00
9853;BME280;4965;43.238;27.864;2022-10-29T08:27:39;101413.06;;;15.28;100.00
9853;BME280;4965;43.238;27.864;2022-10-29T08:30:08;101450.09;;;15.72;100.00
9853;BME280;4965;43.238;27.864;2022-10-29T08:32:45;101442.66;;;16.06;100.00
9853;BME280;4965;43.238;27.864;2022-10-29T08:35:13;101421.41;;;15.86;100.00
9853;BME280;4965;43.238;27.864;2022-10-29T08:37:41;101430.72;;;16.01;100.00
9853;BME280;4965;43.238;27.864;2022-10-29T08:40:12;101399.75;;;16.09;100.00
9853;BME280;4965;43.238;27.864;2022-10-29T08:42:51;101402.00;;;16.14;100.00
9853;BME280;4965;43.238;27.864;2022-10-29T08:45:25;101425.88;;;16.65;100.00
9853;BME280;4965;43.238;27.864;2022-10-29T08:48:18;101427.72;;;16.84;100.00
9853;BME280;4965;43.238;27.864;2022-10-29T08:50:49;101435.75;;;17.03;100.00
9853;BME280;4965;43.238;27.864;2022-10-29T08:53:20;101424.63;;;16.98;100.00
9853;BME280;4965;43.238;27.864;2022-10-29T08:55:49;101383.72;;;16.78;100.00
9853;BME280;4965;43.238;27.864;2022-10-29T08:58:22;101425.72;;;17.14;100.00
9853;BME280;4965;43.238;27.864;2022-10-29T09:00:57;101377.25;;;16.90;100.00
9853;BME280;4965;43.238;27.864;2022-10-29T09:03:27;101356.03;;;16.98;100.00
9853;BME280;4965;43.238;27.864;2022-10-29T09:06:03;101412.19;;;17.54;100.00
9853;BME280;4965;43.238;27.864;2022-10-29T09:08:42;101405.75;;;17.57;100.00
9853;BME280;4965;43.238;27.864;2022-10-29T09:11:26;101401.19;;;17.67;100.00
9853;BME280;4965;43.238;27.864;2022-10-29T09:14:13;101405.69;;;17.76;100.00
9853;BME280;4965;43.238;27.864;2022-10-29T09:16:49;101380.28;;;17.80;100.00
9853;BME280;4965;43.238;27.864;2022-10-29T09:19:34;101398.25;;;17.97;100.00
9853;BME280;4965;43.238;27.864;2022-10-29T09:22:11;101343.47;;;17.74;100.00
9853;BME280;4965;43.238;27.864;2022-10-29T09:24:49;101362.53;;;17.89;100.00
9853;BME280;4965;43.238;27.864;2022-10-29T09:27:23;101395.28;;;18.28;100.00
9853;BME280;4965;43.238;27.864;2022-10-29T09:30:02;101376.75;;;17.43;100.00
9853;BME280;4965;43.238;27.864;2022-10-29T09:32:34;101387.78;;;17.11;100.00
9853;BME280;4965;43.238;27.864;2022-10-29T09:35:09;101386.09;;;17.00;100.00
9853;BME280;4965;43.238;27.864;2022-10-29T09:37:43;101383.78;;;16.29;100.00
9853;BME280;4965;43.238;27.864;2022-10-29T09:40:18;101344.81;;;15.97;100.00
9853;BME280;4965;43.238;27.864;2022-10-29T09:42:51;101391.41;;;15.93;100.00
9853;BME280;4965;43.238;27.864;2022-10-29T09:45:23;101348.34;;;15.98;100.00
9853;BME280;4965;43.238;27.864;2022-10-29T09:47:56;101363.50;;;16.07;100.00
9853;BME280;4965;43.238;27.864;2022-10-29T09:50:32;101385.91;;;16.35;100.00
9853;BME280;4965;43.238;27.864;2022-10-29T09:53:00;101378.53;;;16.77;100.00
9853;BME280;4965;43.238;27.864;2022-10-29T09:55:33;101375.41;;;17.10;100.00
9853;BME280;4965;43.238;27.864;2022-10-29T09:58:04;101349.13;;;17.05;100.00
9853;BME280;4965;43.238;27.864;2022-10-29T10:00:33;101363.25;;;17.44;100.00
9853;BME280;4965;43.238;27.864;2022-10-29T10:03:02;101349.34;;;17.78;100.00
9853;BME280;4965;43.238;27.864;2022-10-29T10:05:35;101362.41;;;17.90;100.00
9853;BME280;4965;43.238;27.864;2022-10-29T10:08:04;101357.56;;;18.21;100.00
9853;BME280;4965;43.238;27.864;2022-10-29T10:10:33;101345.19;;;18.20;100.00
9853;BME280;4965;43.238;27.864;2022-10-29T10:13:03;101339.84;;;18.38;100.00
9853;BME280;4965;43.238;27.864;2022-10-29T10:15:32;101319.69;;;17.98;100.00
9853;BME280;4965;43.238;27.864;2022-10-29T10:18:02;101289.28;;;17.35;100.00
9853;BME280;4965;43.238;27.864;2022-10-29T10:20:37;101326.97;;;18.06;100.00
9853;BME280;4965;43.238;27.864;2022-10-29T10:23:22;101291.56;;;17.94;100.00
9853;BME280;4965;43.238;27.864;2022-10-29T10:25:50;101303.41;;;17.55;100.00
9853;BME280;4965;43.238;27.864;2022-10-29T10:28:19;101322.69;;;17.58;100.00
9853;BME280;4965;43.238;27.864;2022-10-29T10:31:06;101230.09;;;16.84;100.00
9853;BME280;4965;43.238;27.864;2022-10-29T10:33:35;101305.34;;;17.26;100.00
9853;BME280;4965;43.238;27.864;2022-10-29T10:36:07;101305.66;;;17.03;100.00
9853;BME280;4965;43.238;27.864;2022-10-29T10:38:39;101297.22;;;17.08;100.00
9853;BME280;4965;43.238;27.864;2022-10-29T10:41:08;101307.47;;;17.22;100.00
9853;BME280;4965;43.238;27.864;2022-10-29T10:43:37;101296.66;;;17.60;100.00
9853;BME280;4965;43.238;27.864;2022-10-29T10:46:12;101289.88;;;17.29;100.00
9853;BME280;4965;43.238;27.864;2022-10-29T10:48:41;101270.06;;;17.49;100.00
9853;BME280;4965;43.238;27.864;2022-10-29T10:51:15;101280.94;;;17.38;100.00
9853;BME280;4965;43.238;27.864;2022-10-29T10:53:46;101287.81;;;17.60;100.00
9853;BME280;4965;43.238;27.864;2022-10-29T10:56:18;101281.28;;;17.72;100.00
9853;BME280;4965;43.238;27.864;2022-10-29T10:58:50;101282.66;;;17.39;100.00
9853;BME280;4965;43.238;27.864;2022-10-29T11:01:24;101280.31;;;17.64;100.00
9853;BME280;4965;43.238;27.864;2022-10-29T11:03:57;101264.84;;;17.57;100.00
9853;BME280;4965;43.238;27.864;2022-10-29T11:06:31;101243.09;;;17.43;100.00
9853;BME280;4965;43.238;27.864;2022-10-29T11:09:05;101283.44;;;17.86;100.00
9853;BME280;4965;43.238;27.864;2022-10-29T11:11:37;101259.75;;;17.91;100.00
9853;BME280;4965;43.238;27.864;2022-10-29T11:14:10;101259.84;;;17.45;100.00
9853;BME280;4965;43.238;27.864;2022-10-29T11:16:44;101247.00;;;17.58;100.00
9853;BME280;4965;43.238;27.864;2022-10-29T11:19:19;101236.56;;;17.55;100.00
9853;BME280;4965;43.238;27.864;2022-10-29T11:22:00;101257.44;;;17.79;100.00
9853;BME280;4965;43.238;27.864;2022-10-29T11:24:37;101268.38;;;17.58;100.00
9853;BME280;4965;43.238;27.864;2022-10-29T11:27:16;101244.28;;;17.31;100.00
9853;BME280;4965;43.238;27.864;2022-10-29T11:29:52;101256.88;;;17.48;100.00
9853;BME280;4965;43.238;27.864;2022-10-29T11:32:29;101238.66;;;17.34;100.00
9853;BME280;4965;43.238;27.864;2022-10-29T11:35:03;101250.16;;;17.71;100.00
9853;BME280;4965;43.238;27.864;2022-10-29T11:37:39;101238.06;;;17.94;100.00
9853;BME280;4965;43.238;27.864;2022-10-29T11:40:12;101222.53;;;17.98;100.00
9853;BME280;4965;43.238;27.864;2022-10-29T11:42:40;101188.53;;;17.45;100.00
9853;BME280;4965;43.238;27.864;2022-10-29T11:45:10;101236.88;;;17.52;100.00
9853;BME280;4965;43.238;27.864;2022-10-29T11:47:49;101229.28;;;17.47;100.00
9853;BME280;4965;43.238;27.864;2022-10-29T11:50:24;101210.91;;;17.35;100.00
9853;BME280;4965;43.238;27.864;2022-10-29T11:53:01;101179.00;;;17.06;100.00
9853;BME280;4965;43.238;27.864;2022-10-29T11:55:37;101234.03;;;17.53;100.00
9853;BME280;4965;43.238;27.864;2022-10-29T11:58:14;101224.72;;;17.67;100.00
9853;BME280;4965;43.238;27.864;2022-10-29T12:00:55;101230.13;;;17.48;100.00
9853;BME280;4965;43.238;27.864;2022-10-29T12:03:55;101198.69;;;17.05;100.00
9853;BME280;4965;43.238;27.864;2022-10-29T12:06:33;101154.28;;;16.67;100.00
9853;BME280;4965;43.238;27.864;2022-10-29T12:09:33;101175.97;;;16.91;100.00
9853;BME280;4965;43.238;27.864;2022-10-29T12:12:10;101208.28;;;16.98;100.00
9853;BME280;4965;43.238;27.864;2022-10-29T12:14:46;101195.59;;;16.63;100.00
9853;BME280;4965;43.238;27.864;2022-10-29T12:17:20;101201.19;;;16.70;100.00
9853;BME280;4965;43.238;27.864;2022-10-29T12:19:55;101197.44;;;16.99;100.00
9853;BME280;4965;43.238;27.864;2022-10-29T12:22:33;101182.19;;;16.73;100.00
9853;BME280;4965;43.238;27.864;2022-10-29T12:25:20;101195.38;;;16.84;100.00
9853;BME280;4965;43.238;27.864;2022-10-29T12:27:58;101151.38;;;16.88;100.00
9853;BME280;4965;43.238;27.864;2022-10-29T12:30:29;101182.16;;;17.19;100.00
9853;BME280;4965;43.238;27.864;2022-10-29T12:33:05;101185.78;;;17.28;100.00
9853;BME280;4965;43.238;27.864;2022-10-29T12:35:40;101185.38;;;17.23;100.00
9853;BME280;4965;43.238;27.864;2022-10-29T12:38:31;101143.84;;;16.74;100.00
9853;BME280;4965;43.238;27.864;2022-10-29T12:41:05;101154.00;;;16.97;100.00
9853;BME280;4965;43.238;27.864;2022-10-29T12:43:35;101174.84;;;16.94;100.00
9853;BME280;4965;43.238;27.864;2022-10-29T12:46:10;101182.91;;;16.75;100.00
9853;BME280;4965;43.238;27.864;2022-10-29T12:48:46;101186.44;;;16.75;100.00
9853;BME280;4965;43.238;27.864;2022-10-29T12:51:19;101181.41;;;16.62;100.00
9853;BME280;4965;43.238;27.864;2022-10-29T12:54:13;101176.75;;;16.45;100.00
9853;BME280;4965;43.238;27.864;2022-10-29T12:56:44;101154.16;;;16.59;100.00
9853;BME280;4965;43.238;27.864;2022-10-29T12:59:28;101174.53;;;16.60;100.00
9853;BME280;4965;43.238;27.864;2022-10-29T13:02:17;101161.13;;;16.70;100.00
9853;BME280;4965;43.238;27.864;2022-10-29T13:08:27;101160.97;;;16.05;100.00
9853;BME280;4965;43.238;27.864;2022-10-29T13:10:58;101164.97;;;16.38;100.00
9853;BME280;4965;43.238;27.864;2022-10-29T13:13:50;101150.44;;;15.94;100.00
9853;BME280;4965;43.238;27.864;2022-10-29T13:16:23;101160.81;;;15.97;100.00
9853;BME280;4965;43.238;27.864;2022-10-29T13:19:04;101143.69;;;16.00;100.00